Time;durP1;ratioP1;P1;durP2;ratioP2;P2;SDS_P1;SDS_P2;PMS_P1;PMS_P2;Temp;Humidity;BMP_temperature;BMP_pressure;BME280_temperature;BME280_humidity;BME280_pressure;Samples;Min_cycle;Max_cycle;Signal;HPM_P1;HPM_P2
2022/11/15 00:01:18;;;;;;;0.00;0.00;;;7.10;99.90;;;5.61;100.00;101106.41;4962226;28;20510;-79
2022/11/15 00:03:45;;;;;;;0.00;0.00;;;7.20;99.90;;;5.66;100.00;101113.28;4961934;28;20047;-79
2022/11/15 00:06:10;;;;;;;0.00;0.00;;;7.20;99.90;;;5.59;100.00;101109.03;4956977;28;20034;-79
2022/11/15 00:08:36;;;;;;;0.00;0.00;;;7.10;99.90;;;5.60;100.00;101104.69;4959928;28;20753;-79
2022/11/15 00:11:03;;;;;;;0.00;0.00;;;7.10;99.90;;;5.52;100.00;101097.00;4960788;28;20027;-78
2022/11/15 00:13:36;;;;;;;0.00;0.00;;;7.10;99.90;;;5.53;100.00;101096.97;4960575;28;20034;-78
2022/11/15 00:16:02;;;;;;;0.00;0.00;;;7.10;99.90;;;5.52;100.00;101102.22;4944222;28;20034;-78
2022/11/15 00:18:29;;;;;;;0.00;0.00;;;7.10;99.90;;;5.55;100.00;101097.81;4959902;28;20389;-78
2022/11/15 00:21:05;;;;;;;0.00;0.00;;;7.10;99.90;;;5.53;100.00;101099.59;4983111;28;20031;-79
2022/11/15 00:23:30;;;;;;;0.00;0.00;;;7.10;99.90;;;5.51;100.00;101090.94;4961761;28;20551;-78
2022/11/15 00:25:58;;;;;;;0.00;0.00;;;7.10;99.90;;;5.55;100.00;101082.16;4962978;28;20417;-79
2022/11/15 00:28:29;;;;;;;0.00;0.00;;;7.10;99.90;;;5.55;100.00;101084.75;4945912;28;20035;-79
2022/11/15 00:31:04;;;;;;;0.00;0.00;;;7.10;99.90;;;5.57;100.00;101081.25;4958060;28;20031;-78
2022/11/15 00:33:30;;;;;;;0.00;0.00;;;7.10;99.90;;;5.51;100.00;101077.88;4961837;28;20071;-78
2022/11/15 00:36:10;;;;;;;0.00;0.00;;;7.10;99.90;;;5.49;100.00;101071.81;4971691;28;20058;-79
2022/11/15 00:38:40;;;;;;;0.00;0.00;;;7.00;99.90;;;5.47;100.00;101088.41;4977640;28;20035;-79
2022/11/15 00:41:07;;;;;;;0.00;0.00;;;7.00;99.90;;;5.48;100.00;101079.66;4962395;28;20039;-79
2022/11/15 00:43:34;;;;;;;0.00;0.00;;;7.00;99.90;;;5.41;100.00;101083.31;4959147;28;20031;-79
2022/11/15 00:45:59;;;;;;;0.00;0.00;;;7.00;99.90;;;5.48;100.00;101074.44;4961781;28;20050;-79
2022/11/15 00:48:33;;;;;;;0.00;0.00;;;7.00;99.90;;;5.48;100.00;101074.44;4959780;28;20037;-78
2022/11/15 00:50:59;;;;;;;0.00;0.00;;;7.00;99.90;;;5.46;100.00;101077.09;4944337;28;20027;-79
2022/11/15 00:53:24;;;;;;;0.00;0.00;;;7.00;99.90;;;5.41;100.00;101072.84;4958852;28;20045;-79
2022/11/15 00:55:50;;;;;;;0.00;0.00;;;7.00;99.90;;;5.44;100.00;101068.44;4958975;28;20443;-78
2022/11/15 00:58:21;;;;;;;0.00;0.00;;;7.00;99.90;;;5.43;100.00;101077.16;4960013;28;20114;-79
2022/11/15 01:00:47;;;;;;;0.00;0.00;;;7.00;99.90;;;5.46;100.00;101079.69;4960724;28;20066;-79
2022/11/15 01:03:13;;;;;;;0.00;0.00;;;7.00;99.90;;;5.55;100.00;101086.50;4971150;28;20050;-79
2022/11/15 01:05:39;;;;;;;0.00;0.00;;;7.00;99.90;;;5.52;100.00;101086.56;4960400;28;20174;-79
2022/11/15 01:08:05;;;;;;;0.00;0.00;;;7.00;99.90;;;5.51;100.00;101083.09;4942231;28;20031;-78
2022/11/15 01:10:30;;;;;;;0.00;0.00;;;7.00;99.90;;;5.44;100.00;101073.66;4959612;28;20042;-78
2022/11/15 01:12:57;;;;;;;0.00;0.00;;;7.00;99.90;;;5.44;100.00;101070.16;4970938;28;20045;-79
2022/11/15 01:15:25;;;;;;;0.00;0.00;;;7.00;99.90;;;5.47;100.00;101076.22;4962487;28;20058;-79
2022/11/15 01:17:51;;;;;;;0.00;0.00;;;7.00;99.90;;;5.40;100.00;101074.63;4948811;28;20068;-79
2022/11/15 01:20:17;;;;;;;0.00;0.00;;;7.00;99.90;;;5.46;100.00;101071.00;4975103;28;20065;-79
2022/11/15 01:22:42;;;;;;;0.00;0.00;;;7.00;99.90;;;5.48;100.00;101057.00;4963995;28;20039;-79
2022/11/15 01:25:08;;;;;;;0.00;0.00;;;7.00;99.90;;;5.46;100.00;101045.75;4965257;28;20113;-78
2022/11/15 01:27:34;;;;;;;0.00;0.00;;;7.00;99.90;;;5.40;100.00;101038.06;4964402;28;20436;-79
2022/11/15 01:30:00;;;;;;;0.00;0.00;;;7.00;99.90;;;5.43;100.00;101032.75;4963831;28;20090;-79
2022/11/15 01:32:30;;;;;;;0.00;0.00;;;7.00;99.90;;;5.49;100.00;101030.03;4971095;28;20058;-78
2022/11/15 01:34:56;;;;;;;0.00;0.00;;;6.90;99.90;;;5.43;100.00;101017.09;4967733;28;20030;-80
2022/11/15 01:37:22;;;;;;;0.00;0.00;;;7.00;99.90;;;5.40;100.00;101026.72;4970740;28;20035;-79
2022/11/15 01:39:47;;;;;;;0.00;0.00;;;6.90;99.90;;;5.29;100.00;101025.22;4970040;28;20098;-79
2022/11/15 01:42:13;;;;;;;0.00;0.00;;;6.90;99.90;;;5.29;100.00;101029.56;4967631;28;20682;-80
2022/11/15 01:44:51;;;;;;;0.00;0.00;;;6.90;99.90;;;5.25;100.00;101017.47;4972485;28;20027;-79
2022/11/15 01:47:38;;;;;;;0.00;0.00;;;6.90;99.90;;;5.32;100.00;101011.22;4971004;28;20039;-79
2022/11/15 01:50:14;;;;;;;0.00;0.00;;;6.80;99.90;;;5.22;100.00;101000.09;4980264;28;20027;-79
2022/11/15 01:52:40;;;;;;;0.00;0.00;;;6.80;99.90;;;5.21;100.00;101002.75;4967897;28;20027;-80
2022/11/15 01:55:18;;;;;;;0.00;0.00;;;6.70;99.90;;;5.14;100.00;101002.03;4967893;28;20066;-79
2022/11/15 01:57:48;;;;;;;0.00;0.00;;;6.80;99.90;;;5.23;100.00;101014.03;4952481;28;20031;-79
2022/11/15 02:00:15;;;;;;;0.00;0.00;;;6.70;99.90;;;5.24;100.00;101023.56;4951681;28;20023;-79
2022/11/15 02:02:41;;;;;;;0.00;0.00;;;6.70;99.90;;;5.20;100.00;101021.91;4969050;28;20037;-80
2022/11/15 02:05:07;;;;;;;0.00;0.00;;;6.80;99.90;;;5.25;100.00;101009.66;4966427;28;20023;-80
2022/11/15 02:07:35;;;;;;;0.00;0.00;;;6.80;99.90;;;5.20;100.00;101001.88;4968861;28;20090;-79
2022/11/15 02:10:18;;;;;;;0.00;0.00;;;6.70;99.90;;;5.18;100.00;100998.44;4961318;28;20082;-80
2022/11/15 02:12:46;;;;;;;0.00;0.00;;;6.80;99.90;;;5.22;100.00;100996.63;4980678;28;20600;-80
2022/11/15 02:15:13;;;;;;;0.00;0.00;;;6.70;99.90;;;5.12;100.00;100991.59;4969221;28;20198;-79
2022/11/15 02:18:32;;;;;;;0.00;0.00;;;6.70;99.90;;;5.16;100.00;100996.75;4968556;28;20034;-79
2022/11/15 02:21:45;;;;;;;0.00;0.00;;;6.70;99.90;;;5.11;100.00;100992.47;4969133;28;20063;-79
2022/11/15 02:24:41;;;;;;;0.00;0.00;;;6.70;99.90;;;5.13;100.00;100989.84;4978038;28;20095;-79
2022/11/15 02:27:15;;;;;;;0.00;0.00;;;6.70;99.90;;;5.14;100.00;100991.59;4968782;28;20038;-80
2022/11/15 02:30:15;;;;;;;0.00;0.00;;;6.70;99.90;;;5.13;100.00;100990.69;4968615;28;20049;-79
2022/11/15 02:32:50;;;;;;;0.00;0.00;;;6.70;99.90;;;5.17;100.00;100990.66;4964204;28;20039;-78
2022/11/15 02:35:45;;;;;;;0.00;0.00;;;6.70;99.90;;;5.23;100.00;100983.56;4990476;28;20027;-79
2022/11/15 02:38:58;;;;;;;0.00;0.00;;;6.70;99.90;;;5.14;100.00;100989.81;4966047;28;20035;-78
2022/11/15 02:41:39;;;;;;;0.00;0.00;;;6.70;99.90;;;5.12;100.00;100981.16;4961155;28;20030;-79
2022/11/15 02:44:13;;;;;;;0.00;0.00;;;6.70;99.90;;;5.18;100.00;100981.91;4990899;28;20033;-79
2022/11/15 02:47:15;;;;;;;0.00;0.00;;;6.70;99.90;;;5.16;100.00;100968.88;4965301;28;20022;-79
2022/11/15 02:49:54;;;;;;;0.00;0.00;;;6.70;99.90;;;5.10;100.00;100971.66;4986316;28;20192;-79
2022/11/15 02:52:25;;;;;;;0.00;0.00;;;6.70;99.90;;;5.04;100.00;100972.63;4971027;28;20028;-79
2022/11/15 02:54:59;;;;;;;0.00;0.00;;;6.70;99.90;;;5.07;100.00;100969.09;4962989;28;20470;-80
2022/11/15 02:58:03;;;;;;;0.00;0.00;;;6.70;99.90;;;5.09;100.00;100975.97;4964418;28;20122;-79
2022/11/15 03:00:40;;;;;;;0.00;0.00;;;6.60;99.90;;;5.05;100.00;100974.31;4962132;28;20027;-79
2022/11/15 03:03:20;;;;;;;0.00;0.00;;;6.70;99.90;;;5.11;100.00;100974.19;4972923;28;20046;-79
2022/11/15 03:06:14;;;;;;;0.00;0.00;;;6.70;99.90;;;5.11;100.00;100973.34;4965191;28;20431;-78
2022/11/15 03:09:00;;;;;;;0.00;0.00;;;6.70;99.90;;;5.11;100.00;100971.59;4947182;28;20027;-79
2022/11/15 03:11:27;;;;;;;0.00;0.00;;;6.70;99.90;;;5.14;100.00;100982.00;4970471;28;20094;-79
2022/11/15 03:14:24;;;;;;;0.00;0.00;;;6.70;99.90;;;5.08;100.00;100976.88;4972709;28;20026;-79
2022/11/15 03:16:50;;;;;;;0.00;0.00;;;6.60;99.90;;;5.14;100.00;100976.78;4974923;28;20846;-78
2022/11/15 03:19:59;;;;;;;0.00;0.00;;;6.70;99.90;;;5.18;100.00;100972.31;4971274;28;20027;-79
2022/11/15 03:22:29;;;;;;;0.00;0.00;;;6.70;99.90;;;5.22;100.00;100970.53;4885040;29;20033;-79
2022/11/15 03:25:01;;;;;;;0.00;0.00;;;6.70;99.90;;;5.23;100.00;100970.50;4885194;29;20525;-79
2022/11/15 03:27:35;;;;;;;0.00;0.00;;;6.80;99.90;;;5.25;100.00;100968.72;4932501;28;20042;-78
2022/11/15 03:30:10;;;;;;;0.00;0.00;;;6.80;99.90;;;5.26;100.00;100972.19;4944975;28;20491;-79
2022/11/15 03:32:57;;;;;;;0.00;0.00;;;6.70;99.90;;;5.24;100.00;100963.53;4961223;28;20110;-79
2022/11/15 03:35:32;;;;;;;0.00;0.00;;;6.80;99.90;;;5.27;100.00;100971.28;4946772;28;20390;-79
2022/11/15 03:38:26;;;;;;;0.00;0.00;;;6.80;99.90;;;5.28;100.00;100962.56;4979697;28;20039;-79
2022/11/15 03:41:01;;;;;;;0.00;0.00;;;6.80;99.90;;;5.28;100.00;100962.56;4959901;28;20047;-79
2022/11/15 03:44:07;;;;;;;0.00;0.00;;;6.70;99.90;;;5.16;100.00;100957.59;4989887;28;20046;-79
2022/11/15 03:46:42;;;;;;;0.00;0.00;;;6.70;99.90;;;5.18;100.00;100958.41;4971961;28;20164;-79
2022/11/15 03:49:19;;;;;;;0.00;0.00;;;6.70;99.90;;;5.16;100.00;100953.22;4962364;28;20534;-79
2022/11/15 03:51:45;;;;;;;0.00;0.00;;;6.70;99.90;;;5.04;100.00;100948.28;4971477;28;20030;-79
2022/11/15 03:54:12;;;;;;;0.00;0.00;;;6.70;99.90;;;5.08;100.00;100956.00;4968657;28;20058;-79
2022/11/15 03:56:38;;;;;;;0.00;0.00;;;6.70;99.90;;;5.11;100.00;100958.53;4944189;28;20035;-78
2022/11/15 03:59:07;;;;;;;0.00;0.00;;;6.70;99.90;;;5.14;100.00;100948.06;4962675;28;20030;-79
2022/11/15 04:01:35;;;;;;;0.00;0.00;;;6.70;99.90;;;5.13;100.00;100943.72;4962428;28;20030;-79
2022/11/15 04:04:01;;;;;;;0.00;0.00;;;6.70;99.90;;;5.18;100.00;100941.00;4945749;28;20026;-78
2022/11/15 04:06:27;;;;;;;0.00;0.00;;;6.70;99.90;;;5.10;100.00;100943.78;4967217;28;20042;-79
2022/11/15 04:08:53;;;;;;;0.00;0.00;;;6.60;99.90;;;5.06;100.00;100942.13;4960552;28;20045;-79
2022/11/15 04:11:19;;;;;;;0.00;0.00;;;6.70;99.90;;;5.14;100.00;100929.78;4959369;28;20113;-79
2022/11/15 04:13:47;;;;;;;0.00;0.00;;;6.70;99.90;;;5.10;100.00;100938.56;4970737;28;20412;-78
2022/11/15 04:16:15;;;;;;;0.00;0.00;;;6.60;99.90;;;5.06;100.00;100938.66;4947471;28;20026;-79
2022/11/15 04:18:41;;;;;;;0.00;0.00;;;6.60;99.90;;;4.98;100.00;100941.41;4942793;28;20026;-78
2022/11/15 04:26:22;;;;;;;0.00;0.00;;;6.60;99.90;;;5.07;100.00;100938.59;4960374;28;20114;-79
2022/11/15 04:31:33;;;;;;;0.00;0.00;;;6.60;99.90;;;5.04;100.00;100943.91;4959839;28;20065;-78
2022/11/15 04:33:59;;;;;;;0.00;0.00;;;6.60;99.90;;;5.08;100.00;100931.66;4960871;28;20121;-78
2022/11/15 04:39:09;;;;;;;0.00;0.00;;;6.70;99.90;;;5.11;100.00;100944.63;4961205;28;20053;-79
2022/11/15 04:41:35;;;;;;;0.00;0.00;;;6.70;99.90;;;5.10;100.00;100945.53;4960651;28;20027;-79
2022/11/15 04:44:01;;;;;;;0.00;0.00;;;6.70;99.90;;;5.12;100.00;100941.16;4960107;28;20037;-78
2022/11/15 04:46:27;;;;;;;0.00;0.00;;;6.70;99.90;;;5.07;100.00;100935.16;4959507;28;20565;-78
2022/11/15 04:48:54;;;;;;;0.00;0.00;;;6.70;99.90;;;5.07;100.00;100941.22;4945964;28;20057;-79
2022/11/15 04:51:20;;;;;;;0.00;0.00;;;6.60;99.90;;;4.99;100.00;100944.88;4961333;28;20384;-78
2022/11/15 04:53:53;;;;;;;0.00;0.00;;;6.70;99.90;;;5.10;100.00;100951.63;4965812;28;20553;-79
2022/11/15 04:56:19;;;;;;;0.00;0.00;;;6.60;99.90;;;5.09;100.00;100942.06;4960223;28;20031;-78
2022/11/15 04:58:44;;;;;;;0.00;0.00;;;6.70;99.90;;;5.09;100.00;100942.06;4958517;28;20038;-79
2022/11/15 05:01:21;;;;;;;0.00;0.00;;;6.70;99.90;;;5.11;100.00;100928.97;4969398;28;20125;-78
2022/11/15 05:06:31;;;;;;;0.00;0.00;;;6.70;99.90;;;5.14;100.00;100929.78;4963062;28;20120;-79
2022/11/15 05:09:03;;;;;;;0.00;0.00;;;6.70;99.90;;;5.11;100.00;100935.06;4979204;28;20023;-78
2022/11/15 05:11:29;;;;;;;0.00;0.00;;;6.70;99.90;;;5.08;100.00;100927.28;4967716;28;20039;-80
2022/11/15 05:13:55;;;;;;;0.00;0.00;;;6.70;99.90;;;5.11;100.00;100931.59;4976750;28;20062;-79
2022/11/15 05:16:21;;;;;;;0.00;0.00;;;6.70;99.90;;;5.16;100.00;100932.34;4967172;28;20038;-79
2022/11/15 05:18:51;;;;;;;0.00;0.00;;;6.70;99.90;;;5.14;100.00;100935.00;4968373;28;20050;-80
2022/11/15 05:21:19;;;;;;;0.00;0.00;;;6.70;99.90;;;5.20;100.00;100930.53;4971670;28;20035;-79
2022/11/15 05:23:45;;;;;;;0.00;0.00;;;6.70;99.90;;;5.24;100.00;100926.97;4961234;28;20511;-79
2022/11/15 05:26:11;;;;;;;0.00;0.00;;;6.80;99.90;;;5.24;100.00;100930.44;4948862;28;20098;-79
2022/11/15 05:28:38;;;;;;;0.00;0.00;;;6.70;99.90;;;5.16;100.00;100926.28;4947253;28;20035;-80
2022/11/15 05:31:10;;;;;;;0.00;0.00;;;6.70;99.90;;;5.16;100.00;100921.91;4971820;28;20042;-79
2022/11/15 05:33:38;;;;;;;0.00;0.00;;;6.80;99.90;;;5.20;100.00;100923.56;4952362;28;20027;-80
2022/11/15 05:36:41;;;;;;;0.00;0.00;;;6.80;99.90;;;5.24;100.00;100921.75;4961239;28;20033;-79
2022/11/15 05:39:10;;;;;;;0.00;0.00;;;6.70;99.90;;;5.21;100.00;100919.22;4972981;28;20034;-79
2022/11/15 05:41:54;;;;;;;0.00;0.00;;;6.80;99.90;;;5.20;100.00;100920.94;4960763;28;20019;-80
2022/11/15 05:44:23;;;;;;;684.72;284.10;;;6.70;99.90;;;5.14;100.00;100924.56;4981918;28;20098;-80
2022/11/15 05:46:55;;;;;;;0.20;0.20;;;6.70;99.90;;;5.16;100.00;100915.81;4972684;28;20034;-79
2022/11/15 05:49:27;;;;;;;0.20;0.20;;;6.80;99.90;;;5.22;100.00;100919.16;4936879;28;20027;-79
2022/11/15 05:52:01;;;;;;;0.20;0.20;;;6.80;99.90;;;5.27;100.00;100921.66;4965765;28;20027;-79
2022/11/15 05:54:27;;;;;;;0.20;0.20;;;6.80;99.90;;;5.27;100.00;100916.44;4959921;28;20027;-79
2022/11/15 05:56:54;;;;;;;0.20;0.20;;;6.80;99.90;;;5.28;100.00;100924.25;4957943;28;20169;-79
2022/11/15 05:59:23;;;;;;;0.30;0.30;;;6.80;99.90;;;5.29;100.00;100919.88;4981084;28;20479;-79
2022/11/15 06:01:51;;;;;;;0.40;0.40;;;6.80;99.90;;;5.22;100.00;100915.69;4959570;28;20039;-79
2022/11/15 06:04:17;;;;;;;1.48;1.45;;;6.80;99.90;;;5.27;100.00;100914.72;4971500;28;20035;-79
2022/11/15 06:06:42;;;;;;;2.70;2.60;;;6.80;99.90;;;5.30;100.00;100921.63;4957327;28;20045;-78
2022/11/15 06:09:08;;;;;;;10.20;9.60;;;6.80;99.90;;;5.30;100.00;100925.09;4969763;28;21408;-79
2022/11/15 06:11:34;;;;;;;17.27;16.17;;;6.80;99.90;;;5.27;100.00;100925.16;4970542;28;20117;-78
2022/11/15 06:14:00;;;;;;;1999.90;999.90;;;6.80;99.90;;;5.27;100.00;100924.28;4959961;28;20530;-78
2022/11/15 06:16:28;;;;;;;1999.90;999.90;;;6.80;99.90;;;5.28;100.00;100931.25;4972636;28;20173;-79
2022/11/15 06:18:54;;;;;;;1999.90;999.90;;;6.80;99.90;;;5.26;100.00;100938.25;4952618;28;20031;-78
2022/11/15 06:21:20;;;;;;;13.05;12.25;;;6.80;99.90;;;5.20;100.00;100934.00;4956228;28;20684;-78
2022/11/15 06:23:45;;;;;;;5.57;5.28;;;6.70;99.90;;;5.25;100.00;100937.38;4955142;28;20027;-78
2022/11/15 06:26:11;;;;;;;4.22;4.03;;;6.80;99.90;;;5.23;100.00;100943.53;4939808;28;20114;-78
2022/11/15 06:28:37;;;;;;;2.40;2.30;;;6.70;99.90;;;5.14;100.00;100945.44;4959461;28;20031;-79
2022/11/15 06:31:12;;;;;;;3.10;3.00;;;6.70;99.90;;;5.21;100.00;100942.72;4957870;28;20031;-79
2022/11/15 06:33:39;;;;;;;1999.90;999.90;;;6.70;99.90;;;5.15;100.00;100941.06;4958735;28;20033;-78
2022/11/15 06:36:17;;;;;;;1999.90;999.90;;;6.70;99.90;;;5.21;100.00;100946.19;4957729;28;20072;-78
2022/11/15 06:38:44;;;;;;;1999.90;999.90;;;6.70;99.90;;;5.24;100.00;100958.31;4957627;28;20106;-78
2022/11/15 06:41:21;;;;;;;1999.90;999.90;;;6.70;99.90;;;5.22;100.00;100957.47;4974367;28;20054;-77
2022/11/15 06:43:47;;;;;;;1999.90;999.90;;;6.70;99.90;;;5.08;100.00;100963.00;4971950;28;20026;-78
2022/11/15 06:46:13;;;;;;;34.28;12.82;;;6.70;99.90;;;5.14;100.00;100958.50;4968193;28;20095;-78
2022/11/15 06:48:39;;;;;;;1.10;1.10;;;6.70;99.90;;;5.19;100.00;100962.78;4958188;28;20042;-78
2022/11/15 06:51:10;;;;;;;1.00;1.00;;;6.70;99.90;;;5.10;100.00;100964.66;4965897;28;20662;-79
2022/11/15 06:53:36;;;;;;;1.00;1.00;;;6.70;99.90;;;5.22;100.00;100967.91;4953616;28;20035;-77
2022/11/15 06:56:05;;;;;;;1.10;1.10;;;6.70;99.90;;;5.26;100.00;100966.97;4957447;28;20404;-78
2022/11/15 06:58:31;;;;;;;3.45;3.22;;;6.70;99.90;;;5.26;100.00;100970.44;4979191;28;20399;-79
2022/11/15 07:01:07;;;;;;;1.10;1.10;;;6.70;99.90;;;5.24;100.00;100968.75;4968951;28;20035;-78
2022/11/15 07:03:36;;;;;;;6.10;5.57;;;6.70;99.90;;;5.23;100.00;100965.28;4974613;28;20034;-78
2022/11/15 07:06:04;;;;;;;0.10;0.10;;;6.70;99.90;;;5.14;100.00;100966.34;4982216;28;20035;-78
2022/11/15 07:08:30;;;;;;;0.20;0.20;;;6.70;99.90;;;5.22;100.00;100971.38;4957280;28;20408;-78
2022/11/15 07:11:01;;;;;;;43.58;24.70;;;6.70;99.90;;;5.18;100.00;100972.31;4957051;28;20402;-78
2022/11/15 07:13:36;;;;;;;1999.90;999.90;;;6.70;99.90;;;5.19;100.00;100976.69;4966531;28;20037;-77
2022/11/15 07:16:10;;;;;;;1999.90;999.90;;;6.60;99.90;;;5.10;100.00;100980.34;4957027;28;20488;-78
2022/11/15 07:18:38;;;;;;;1505.72;755.35;;;6.60;99.90;;;5.16;100.00;100984.56;4965043;28;20062;-78
2022/11/15 07:21:08;;;;;;;1999.90;999.90;;;6.70;99.90;;;5.21;100.00;100979.25;4951990;28;20135;-79
2022/11/15 07:23:37;;;;;;;2.45;2.30;;;6.70;99.90;;;5.21;100.00;100981.88;4965380;28;20026;-78
2022/11/15 07:26:07;;;;;;;0.10;0.10;;;6.70;99.90;;;5.25;100.00;100993.97;4965942;28;20039;-78
2022/11/15 07:28:34;;;;;;;2.90;2.75;;;6.70;99.90;;;5.26;100.00;100991.31;4954528;28;20039;-78
2022/11/15 07:31:11;;;;;;;1.30;1.30;;;6.80;99.90;;;5.27;100.00;100990.44;4978781;28;20035;-78
2022/11/15 07:33:37;;;;;;;7.57;6.80;;;6.80;99.90;;;5.29;100.00;100990.38;4973003;28;20043;-78
2022/11/15 07:36:06;;;;;;;1999.90;999.90;;;6.70;99.90;;;5.22;100.00;100994.88;4940695;28;20087;-78
2022/11/15 07:38:34;;;;;;;1999.90;999.90;;;6.70;99.90;;;5.20;100.00;100996.66;4979519;28;20085;-78
2022/11/15 07:41:05;;;;;;;1999.90;999.90;;;6.70;99.90;;;5.25;100.00;100989.59;4955458;28;20031;-78
2022/11/15 07:43:33;;;;;;;1999.90;999.90;;;6.80;99.90;;;5.23;100.00;100991.38;4954907;28;20066;-78
2022/11/15 07:46:08;;;;;;;1999.90;999.90;;;6.70;99.90;;;5.18;100.00;101002.81;4957989;28;20031;-78
2022/11/15 07:48:39;;;;;;;1999.90;999.90;;;6.70;99.90;;;5.12;100.00;101003.81;4964568;28;20066;-78
2022/11/15 07:51:15;;;;;;;1999.90;999.90;;;6.70;99.90;;;5.10;100.00;101011.66;4982253;28;20033;-78
2022/11/15 07:53:42;;;;;;;1999.90;999.90;;;6.60;99.90;;;5.16;100.00;101004.59;4963656;28;20045;-78
2022/11/15 07:56:16;;;;;;;1999.90;999.90;;;6.70;99.90;;;5.19;100.00;101007.16;4972968;28;20039;-77
2022/11/15 07:58:41;;;;;;;1999.90;999.90;;;6.70;99.90;;;5.24;100.00;101002.69;4942383;28;20122;-78
2022/11/15 08:01:10;;;;;;;1999.90;999.90;;;6.70;99.90;;;5.33;100.00;100997.28;4953538;28;20174;-79
2022/11/15 08:03:45;;;;;;;1999.90;999.90;;;6.70;99.90;;;5.23;100.00;101000.97;4965366;28;20392;-78
2022/11/15 08:06:11;;;;;;;1999.90;999.90;;;6.70;99.90;;;5.23;100.00;101001.84;4955035;28;20063;-77
2022/11/15 08:08:37;;;;;;;1999.90;999.90;;;6.70;99.90;;;5.26;100.00;101003.50;4955370;28;20098;-78
2022/11/15 08:11:03;;;;;;;1999.90;999.90;;;6.70;99.90;;;5.31;100.00;101007.75;4953951;28;20117;-78
2022/11/15 08:13:34;;;;;;;132.35;65.03;;;6.80;99.90;;;5.34;100.00;101001.63;4953416;28;20035;-77
2022/11/15 08:16:02;;;;;;;8.02;7.18;;;6.80;99.90;;;5.35;100.00;101003.31;4956426;28;20038;-78
2022/11/15 08:18:28;;;;;;;0.00;0.00;;;6.80;99.90;;;5.23;100.00;101000.97;4954220;28;20030;-78
2022/11/15 08:21:02;;;;;;;0.00;0.00;;;6.80;99.90;;;5.34;100.00;100996.41;4952999;28;20118;-77
2022/11/15 08:23:28;;;;;;;0.00;0.00;;;6.80;99.90;;;5.34;100.00;101002.47;4963863;28;20069;-78
2022/11/15 08:26:07;;;;;;;0.00;0.00;;;6.80;99.90;;;5.33;100.00;101002.50;4966903;28;20058;-78
2022/11/15 08:28:33;;;;;;;0.00;0.00;;;6.80;99.90;;;5.38;100.00;101005.88;4956133;28;20038;-78
2022/11/15 08:30:59;;;;;;;0.00;0.00;;;6.80;99.90;;;5.37;100.00;101014.59;4954750;28;20511;-78
2022/11/15 08:33:25;;;;;;;0.00;0.00;;;6.90;99.90;;;5.35;100.00;101004.16;4963133;28;20034;-78
2022/11/15 08:35:51;;;;;;;0.00;0.00;;;6.80;99.90;;;5.34;100.00;101010.31;4956982;28;20038;-78
2022/11/15 08:38:23;;;;;;;0.00;0.00;;;6.80;99.90;;;5.40;100.00;101008.44;4946979;28;20042;-77
2022/11/15 08:41:02;;;;;;;0.00;0.00;;;6.80;99.90;;;5.46;100.00;101009.16;4966089;28;20054;-77
2022/11/15 08:43:28;;;;;;;0.00;0.00;;;6.80;99.90;;;5.39;100.00;101001.50;4953492;28;20043;-77
2022/11/15 08:45:58;;;;;;;0.00;0.00;;;6.90;99.90;;;5.38;100.00;101008.50;4953163;28;20033;-78
2022/11/15 08:48:24;;;;;;;0.00;0.00;;;6.80;99.90;;;5.30;100.00;100998.19;4966284;28;20030;-78
2022/11/15 08:50:55;;;;;;;0.00;0.00;;;6.90;99.90;;;5.44;100.00;100995.31;4971764;28;20087;-78
2022/11/15 08:53:21;;;;;;;0.00;0.00;;;6.90;99.90;;;5.48;100.00;100996.09;4966031;28;20539;-78
2022/11/15 08:55:47;;;;;;;0.00;0.00;;;6.90;99.90;;;5.51;100.00;100991.66;4938745;28;20130;-78
2022/11/15 08:58:12;;;;;;;0.00;0.00;;;7.00;99.90;;;5.53;100.00;100997.72;4965756;28;20035;-78
2022/11/15 09:00:38;;;;;;;0.00;0.00;;;7.00;99.90;;;5.54;100.00;100991.59;4950304;28;20113;-78
2022/11/15 09:03:10;;;;;;;0.00;0.00;;;7.00;99.90;;;5.62;100.00;101003.66;4965995;28;20070;-78
2022/11/15 09:05:40;;;;;;;0.00;0.00;;;7.00;99.90;;;5.62;100.00;100993.19;4955158;28;20090;-78
2022/11/15 09:08:14;;;;;;;0.00;0.00;;;7.10;99.90;;;5.64;100.00;100991.41;4954838;28;20042;-78
2022/11/15 09:10:46;;;;;;;0.00;0.00;;;7.10;99.90;;;5.78;100.00;100997.19;4955031;28;20522;-78
2022/11/15 09:13:17;;;;;;;0.00;0.00;;;7.10;99.90;;;5.70;100.00;100986.91;4965249;28;20035;-78
2022/11/15 09:15:43;;;;;;;0.00;0.00;;;7.20;99.90;;;5.81;100.00;100993.63;4960461;28;20079;-79
2022/11/15 09:18:09;;;;;;;0.00;0.00;;;7.20;99.90;;;5.88;100.00;100990.84;4971453;28;20046;-78
2022/11/15 09:20:35;;;;;;;0.00;0.00;;;7.20;99.90;;;5.80;100.00;100998.00;4950120;28;20070;-78
2022/11/15 09:23:12;;;;;;;0.00;0.00;;;7.20;99.90;;;5.74;100.00;100993.78;4956438;28;20038;-79
2022/11/15 09:25:38;;;;;;;0.00;0.00;;;7.20;99.90;;;5.85;100.00;101001.41;4960844;28;20031;-78
2022/11/15 09:28:07;;;;;;;0.00;0.00;;;7.20;99.90;;;5.91;100.00;101008.22;4970655;28;20035;-78
2022/11/15 09:30:42;;;;;;;0.00;0.00;;;7.30;99.90;;;5.98;100.00;101011.56;4956937;28;20082;-79
2022/11/15 09:33:19;;;;;;;0.00;0.00;;;7.30;99.90;;;5.94;100.00;101002.94;4958300;28;20051;-78
2022/11/15 09:35:47;;;;;;;0.00;0.00;;;7.40;99.90;;;6.08;100.00;101003.47;4973421;28;20027;-77
2022/11/15 09:38:22;;;;;;;0.00;0.00;;;7.50;99.90;;;6.16;100.00;101003.31;4961620;28;20040;-79
2022/11/15 09:41:18;;;;;;;0.00;0.00;;;7.40;99.90;;;6.14;100.00;101008.56;4962487;28;20057;-78
2022/11/15 09:44:20;;;;;;;0.00;0.00;;;7.50;99.90;;;6.30;100.00;101014.28;4961324;28;20058;-78
2022/11/15 09:47:09;;;;;;;0.00;0.00;;;7.60;99.90;;;6.35;100.00;101004.59;4972923;28;20035;-78
2022/11/15 09:49:41;;;;;;;0.00;0.00;;;7.60;99.90;;;6.19;100.00;101013.69;4963929;28;20031;-79
2022/11/15 09:52:13;;;;;;;0.00;0.00;;;7.60;99.90;;;6.25;100.00;101010.09;4962761;28;20493;-78
2022/11/15 09:54:51;;;;;;;57.10;18.63;;;7.60;99.90;;;6.24;100.00;101016.19;4963762;28;20038;-78
2022/11/15 09:57:54;;;;;;;0.00;0.00;;;7.60;99.90;;;6.22;100.00;101011.03;4986749;28;20062;-79
2022/11/15 10:00:46;;;;;;;0.38;0.38;;;7.60;99.90;;;6.24;100.00;101014.47;4953865;28;20038;-79
2022/11/15 10:03:27;;;;;;;0.00;0.00;;;7.60;99.90;;;6.20;100.00;101002.34;4964420;28;20049;-79
2022/11/15 10:06:00;;;;;;;6.10;5.32;;;7.60;99.90;;;6.26;100.00;101002.19;4990801;28;20027;-79
2022/11/15 10:08:48;;;;;;;0.00;0.00;;;;;;;6.36;100.00;100998.44;4961327;28;20434;-78
2022/11/15 10:11:28;;;;;;;0.00;0.00;;;7.70;99.90;;;6.45;100.00;100986.03;4969595;28;20027;-78
2022/11/15 10:14:07;;;;;;;0.00;0.00;;;7.80;99.90;;;6.35;100.00;100978.44;4945996;28;20057;-79
2022/11/15 10:17:04;;;;;;;0.00;0.00;;;7.70;99.90;;;6.24;100.00;100971.75;4963936;28;20027;-77
2022/11/15 10:20:37;;;;;;;0.00;0.00;;;7.70;99.90;;;6.44;100.00;100963.41;4943582;28;20031;-78
2022/11/15 10:23:13;;;;;;;0.00;0.00;;;7.80;99.90;;;6.40;100.00;100967.00;4967775;28;20049;-78
2022/11/15 10:25:39;;;;;;;0.00;0.00;;;7.80;99.90;;;6.40;100.00;100959.16;4979534;28;20043;-79
2022/11/15 10:28:14;;;;;;;0.00;0.00;;;7.90;99.90;;;6.51;100.00;100972.81;4960757;28;20122;-78
2022/11/15 10:30:52;;;;;;;0.00;0.00;;;7.90;99.90;;;6.62;100.00;100975.16;4955743;28;20533;-78
2022/11/15 10:33:43;;;;;;;0.00;0.00;;;8.00;99.90;;;6.58;100.00;100972.59;4955090;28;20094;-78
2022/11/15 10:36:20;;;;;;;0.00;0.00;;;8.00;99.90;;;6.57;100.00;100965.66;4986633;28;20115;-78
2022/11/15 10:38:55;;;;;;;0.00;0.00;;;7.90;99.90;;;6.50;100.00;100956.25;4971566;28;20043;-79
2022/11/15 10:41:35;;;;;;;0.00;0.00;;;7.80;99.90;;;6.42;100.00;100955.59;4941416;28;20043;-79
2022/11/15 10:44:29;;;;;;;0.00;0.00;;;7.90;99.90;;;6.54;100.00;100964.88;4961073;28;20030;-78
2022/11/15 10:46:55;;;;;;;0.00;0.00;;;7.90;99.90;;;6.58;100.00;100966.50;4956243;28;20047;-79
2022/11/15 10:49:32;;;;;;;0.00;0.00;;;8.00;99.90;;;6.63;100.00;100964.66;4970946;28;20062;-78
2022/11/15 10:52:23;;;;;;;0.00;0.00;;;8.00;99.90;;;6.69;100.00;100967.06;4959470;28;20129;-78